Swansea, California
Current Conditions -  °F | °C
As of 6:56 PM on Sunday 23 Nov 2014 (Local Time) from KBIH Reporting Station
Overcast Overcast  
Wind Chill: 12°   Ceiling: 11000
Heat Index: 12°   Visibility: 10mi
Dew Point: -21°   Wind: 3mph
Humidity: 9%   Direction: 140°SE
Pressure: 30.23"   Gusts: NA
Location:  36.6126°N, 118.162°W
Report Text: KBIH 240256Z AUTO 14003KT 10SM OVC110 12/M21 A3023 RMK AO2 SLP224 T01171206 53012
Loading
Personal Weather Stations






























Interactive Weather Map New forecast layout! Learn more

10-Day Weather Forecast

Advertisements
Track Severe Weather on mobile